Time;durP1;ratioP1;P1;durP2;ratioP2;P2;SDS_P1;SDS_P2;PMS_P1;PMS_P2;Temp;Humidity;BMP_temperature;BMP_pressure;BME280_temperature;BME280_humidity;BME280_pressure;Samples;Min_cycle;Max_cycle;Signal;HPM_P1;HPM_P2
2022/05/16 00:01:42;;;;;;;9.02;8.43;;;;;;;18.59;73.96;100456.25;5096914;28;20122;-68
2022/05/16 00:04:10;;;;;;;8.60;7.85;;;;;;;18.69;73.65;100458.72;5129165;27;20086;-68
2022/05/16 00:06:37;;;;;;;9.38;8.07;;;;;;;18.66;73.65;100456.56;5109064;28;20044;-68
2022/05/16 00:09:04;;;;;;;12.18;8.25;;;;;;;18.76;73.87;100461.06;5113414;28;20082;-70
2022/05/16 00:11:31;;;;;;;9.48;7.80;;;;;;;18.64;73.87;100427.78;5112498;28;20097;-70
2022/05/16 00:13:58;;;;;;;7.88;7.28;;;;;;;18.80;73.49;100458.38;5111207;27;20075;-68
2022/05/16 00:16:25;;;;;;;7.97;7.38;;;;;;;18.62;73.40;100432.13;5112168;28;20083;-68
2022/05/16 00:18:52;;;;;;;8.13;7.43;;;;;;;18.68;72.86;100447.75;5109692;28;20052;-69
2022/05/16 00:21:19;;;;;;;22.75;8.07;;;;;;;18.90;72.73;100455.16;5112211;28;22470;-71
2022/05/16 00:23:46;;;;;;;7.93;6.70;;;;;;;18.90;72.49;100455.16;5108080;28;20118;-68
2022/05/16 00:26:13;;;;;;;9.50;6.70;;;;;;;18.92;72.41;100452.84;5098892;28;20052;-68
2022/05/16 00:28:40;;;;;;;7.05;6.70;;;;;;;18.91;72.44;100465.34;5110912;28;20415;-68
2022/05/16 00:31:07;;;;;;;9.70;7.45;;;;;;;18.84;72.03;100451.72;5105732;28;20130;-68
2022/05/16 00:33:34;;;;;;;9.00;6.68;;;;;;;18.79;71.83;100459.56;5112073;27;20051;-68
2022/05/16 00:36:01;;;;;;;12.48;7.00;;;;;;;19.03;71.76;100461.78;5109223;28;20134;-71
2022/05/16 00:38:28;;;;;;;6.85;6.28;;;;;;;18.91;72.12;100454.84;5143320;27;20154;-69
2022/05/16 00:40:58;;;;;;;8.48;6.80;;;;;;;19.04;72.13;100464.28;5100714;28;20131;-69
2022/05/16 00:43:55;;;;;;;10.50;7.15;;;;;;;18.91;72.19;100468.19;5112153;28;20138;-68
2022/05/16 00:46:26;;;;;;;7.93;6.57;;;;;;;18.96;71.68;100462.31;5107814;28;20043;-67
2022/05/16 00:48:53;;;;;;;7.50;7.00;;;;;;;18.81;71.32;100466.53;5111381;27;20039;-67
2022/05/16 00:51:24;;;;;;;11.35;6.63;;;;;;;18.68;71.79;100437.25;5109586;28;20170;-65
2022/05/16 00:53:56;;;;;;;8.10;7.50;;;;;;;18.51;71.53;100444.97;5110508;28;20131;-67
2022/05/16 00:56:26;;;;;;;7.18;6.70;;;;;;;18.35;71.78;100427.69;5111879;27;20141;-68
2022/05/16 00:58:54;;;;;;;7.57;6.93;;;;;;;18.33;71.82;100452.66;5111371;28;20124;-68
2022/05/16 01:06:58;;;;;;;7.80;7.05;;;;;;;18.16;73.16;100445.88;5111215;28;20058;-69
2022/05/16 01:09:26;;;;;;;8.35;7.53;;;;;;;18.13;73.07;100438.06;5095723;28;20122;-68
2022/05/16 01:11:53;;;;;;;14.27;8.85;;;;;;;18.27;72.77;100443.53;5108382;28;20054;-68
2022/05/16 01:14:42;;;;;;;8.23;7.63;;;;;;;18.25;72.52;100440.19;5110039;27;20157;-69
2022/05/16 01:17:09;;;;;;;7.73;7.07;;;;;;;18.51;72.42;100454.28;5111223;27;20069;-69
2022/05/16 01:19:36;;;;;;;8.07;7.47;;;;;;;18.42;72.79;100442.16;5112431;28;20473;-69
2022/05/16 01:22:14;;;;;;;9.80;7.40;;;;;;;18.44;73.00;100456.78;5110022;27;20106;-68
2022/05/16 01:24:42;;;;;;;9.18;8.43;;;;;;;18.31;73.95;100455.00;5112524;28;20071;-69
2022/05/16 01:27:09;;;;;;;12.82;11.73;;;;;;;18.03;74.66;100444.06;5107466;27;20552;-68
2022/05/16 01:29:36;;;;;;;15.13;13.07;;;;;;;17.83;74.98;100433.41;5111768;28;20082;-68
2022/05/16 01:32:03;;;;;;;12.77;11.98;;;;;;;17.83;75.34;100437.06;5111129;28;20086;-67
2022/05/16 01:34:31;;;;;;;16.02;15.02;;;;;;;17.81;75.66;100430.09;5111539;28;20550;-68
2022/05/16 01:36:57;;;;;;;14.98;13.43;;;;;;;17.57;76.26;100425.72;5110401;28;20178;-68
2022/05/16 01:39:24;;;;;;;19.33;17.58;;;;;;;17.58;76.62;100421.75;5137692;27;20461;-68
2022/05/16 01:41:51;;;;;;;13.27;11.93;;;;;;;17.45;76.63;100402.97;5105357;28;20079;-67
2022/05/16 01:44:18;;;;;;;13.18;12.15;;;;;;;17.56;76.48;100412.78;5111650;28;20078;-67
2022/05/16 01:46:45;;;;;;;12.77;11.98;;;;;;;17.53;76.59;100413.44;5109910;28;20078;-68
2022/05/16 01:49:12;;;;;;;12.73;11.93;;;;;;;17.56;76.44;100418.41;5104805;28;20238;-67
2022/05/16 01:51:40;;;;;;;12.15;11.20;;;;;;;17.48;76.66;100405.13;5111112;28;20052;-67
2022/05/16 01:54:07;;;;;;;12.98;12.18;;;;;;;17.50;76.27;100408.44;5111530;28;20139;-67
2022/05/16 01:56:35;;;;;;;11.68;11.07;;;;;;;17.32;76.33;100398.31;5110268;28;20091;-68
2022/05/16 01:59:04;;;;;;;12.68;11.32;;;;;;;17.38;76.26;100399.81;5111568;28;20101;-68
2022/05/16 02:01:32;;;;;;;11.07;10.57;;;;;;;17.47;76.46;100403.47;5108340;28;20065;-68
2022/05/16 02:03:59;;;;;;;12.98;11.93;;;;;;;17.44;76.46;100398.50;5109494;28;20143;-67
2022/05/16 02:06:26;;;;;;;12.95;11.88;;;;;;;17.31;76.22;100386.19;5111068;28;20134;-68
2022/05/16 02:08:54;;;;;;;12.80;11.75;;;;;;;17.27;76.20;100380.38;5113168;28;20568;-70
2022/05/16 02:11:21;;;;;;;13.23;12.00;;;;;;;17.45;76.12;100386.03;5107865;28;20559;-72
2022/05/16 02:13:48;;;;;;;12.18;11.38;;;;;;;17.38;75.98;100382.88;5110012;28;20123;-70
2022/05/16 02:16:15;;;;;;;13.43;12.23;;;;;;;17.33;75.79;100363.25;5109986;28;20130;-70
2022/05/16 02:18:43;;;;;;;13.18;12.25;;;;;;;17.40;76.23;100400.28;5110491;28;20047;-70
2022/05/16 02:26:46;;;;;;;14.57;13.27;;;;;;;17.30;76.34;100364.78;5112472;27;20055;-69
2022/05/16 02:29:15;;;;;;;11.98;11.10;;;;;;;17.23;76.44;100387.84;5114913;28;20055;-70
2022/05/16 02:31:42;;;;;;;13.20;12.10;;;;;;;17.11;76.80;100387.63;5103770;27;20135;-71
2022/05/16 02:34:09;;;;;;;13.55;12.43;;;;;;;17.23;76.62;100399.13;5115875;28;20142;-71
2022/05/16 02:36:36;;;;;;;14.73;13.68;;;;;;;17.35;76.74;100398.47;5115882;28;20052;-70
2022/05/16 02:39:03;;;;;;;15.77;14.50;;;;;;;17.36;76.86;100404.94;5114592;28;20087;-70
2022/05/16 02:41:30;;;;;;;15.48;13.80;;;;;;;17.41;76.85;100397.16;5107269;27;20132;-71
2022/05/16 02:43:57;;;;;;;14.55;13.02;;;;;;;17.33;77.59;100383.03;5114277;27;20128;-71
2022/05/16 02:46:24;;;;;;;14.02;13.15;;;;;;;17.26;77.47;100373.06;5114286;27;20131;-70
2022/05/16 02:48:51;;;;;;;13.10;12.40;;;;;;;17.19;77.44;100371.88;5110517;28;20039;-71
2022/05/16 02:51:18;;;;;;;12.70;12.07;;;;;;;17.07;77.32;100346.31;5115179;28;20058;-71
2022/05/16 02:53:45;;;;;;;12.75;11.77;;;;;;;17.25;77.03;100368.56;5113135;28;20578;-70
2022/05/16 02:56:12;;;;;;;11.80;10.88;;;;;;;17.37;76.83;100382.06;5114855;28;20086;-70
2022/05/16 02:58:40;;;;;;;10.90;10.05;;;;;;;17.49;76.36;100378.56;5115407;27;20130;-70
2022/05/16 03:01:07;;;;;;;13.68;9.63;;;;;;;17.70;75.82;100379.56;5095443;28;20092;-70
2022/05/16 03:03:34;;;;;;;9.27;8.57;;;;;;;17.66;75.18;100367.25;5113775;27;20482;-70
2022/05/16 03:06:02;;;;;;;9.38;8.75;;;;;;;17.80;74.73;100378.41;5113557;27;20135;-70
2022/05/16 03:08:29;;;;;;;10.85;9.88;;;;;;;17.90;74.27;100382.91;5114200;28;20127;-69
2022/05/16 03:10:57;;;;;;;9.32;8.80;;;;;;;17.99;74.10;100375.25;5113364;27;20075;-69
2022/05/16 03:13:24;;;;;;;10.93;9.98;;;;;;;17.96;73.81;100370.28;5112842;28;20054;-69
2022/05/16 03:15:51;;;;;;;10.25;9.55;;;;;;;17.66;74.17;100355.97;5113493;28;20051;-68
2022/05/16 03:18:19;;;;;;;9.75;9.07;;;;;;;17.74;75.03;100371.25;5112381;27;20126;-69
2022/05/16 03:20:46;;;;;;;16.45;15.10;;;;;;;17.60;75.82;100376.22;5114377;28;20562;-69
2022/05/16 03:23:13;;;;;;;15.70;14.35;;;;;;;17.43;76.38;100368.59;5115546;28;20135;-69
2022/05/16 03:25:39;;;;;;;15.45;14.40;;;;;;;17.46;76.77;100382.88;5113745;27;20075;-69
2022/05/16 03:28:06;;;;;;;16.10;15.10;;;;;;;17.16;77.55;100381.84;5112937;27;20078;-69
2022/05/16 03:30:33;;;;;;;18.27;16.50;;;;;;;17.04;77.87;100356.25;5115060;27;20481;-69
2022/05/16 03:33:00;;;;;;;18.25;16.80;;;;;;;16.90;78.51;100375.31;5101757;28;20554;-69
2022/05/16 03:35:27;;;;;;;17.92;16.67;;;;;;;16.75;78.88;100377.44;5107957;27;20135;-71
2022/05/16 03:37:54;;;;;;;18.42;17.33;;;;;;;16.91;78.73;100391.91;5112393;27;20091;-71
2022/05/16 03:43:06;;;;;;;18.55;16.92;;;;;;;17.09;79.00;100381.47;5111795;28;20104;-70
2022/05/16 03:45:33;;;;;;;17.65;16.50;;;;;;;16.93;79.21;100346.47;5112555;27;20476;-71
2022/05/16 03:48:01;;;;;;;18.50;17.23;;;;;;;16.93;79.66;100372.66;5113277;28;20054;-71
2022/05/16 03:50:28;;;;;;;17.35;16.13;;;;;;;16.84;79.56;100362.50;5113352;28;20083;-71
2022/05/16 03:52:58;;;;;;;18.88;17.40;;;;;;;16.93;79.75;100383.13;5111503;27;20467;-70
2022/05/16 03:55:25;;;;;;;16.75;15.40;;;;;;;16.99;80.19;100373.31;5112881;28;20050;-70
2022/05/16 03:57:52;;;;;;;17.35;14.75;;;;;;;16.99;80.02;100376.16;5109606;28;20531;-70
2022/05/16 04:00:19;;;;;;;14.70;13.75;;;;;;;17.02;79.88;100372.69;5117411;27;20123;-70
2022/05/16 04:02:46;;;;;;;16.38;14.77;;;;;;;17.13;79.41;100393.81;5113203;28;20082;-71
2022/05/16 04:05:18;;;;;;;17.98;14.18;;;;;;;17.22;79.29;100408.75;5111716;28;20073;-72
2022/05/16 04:07:47;;;;;;;14.75;13.57;;;;;;;17.25;79.26;100385.50;5111746;28;20047;-70
2022/05/16 04:10:14;;;;;;;13.55;12.85;;;;;;;17.07;79.18;100352.78;5113715;27;20489;-70
2022/05/16 04:12:41;;;;;;;15.43;13.90;;;;;;;17.28;79.18;100373.56;5111026;27;20079;-70
2022/05/16 04:15:11;;;;;;;16.48;14.50;;;;;;;17.27;79.08;100371.91;5108987;28;20126;-70
2022/05/16 04:17:38;;;;;;;15.38;14.25;;;;;;;17.26;79.22;100366.56;5112639;27;20127;-70
2022/05/16 04:20:06;;;;;;;13.77;13.15;;;;;;;17.27;79.43;100382.38;5109300;28;20156;-70
2022/05/16 04:22:33;;;;;;;14.85;13.73;;;;;;;17.31;78.99;100380.53;5107056;27;20565;-70
2022/05/16 04:25:00;;;;;;;14.60;13.43;;;;;;;17.36;78.90;100399.31;5112290;27;20131;-70
2022/05/16 04:27:27;;;;;;;15.43;14.00;;;;;;;17.41;79.04;100410.44;5112190;27;20051;-70
2022/05/16 04:29:54;;;;;;;16.02;14.32;;;;;;;17.43;78.57;100402.47;5106779;28;20566;-70
2022/05/16 04:32:21;;;;;;;16.10;15.05;;;;;;;17.48;78.36;100386.19;5101544;27;20186;-69
2022/05/16 04:34:48;;;;;;;11.63;11.13;;;;;;;17.53;77.85;100391.66;5109602;28;20128;-69
2022/05/16 04:37:15;;;;;;;12.80;11.68;;;;;;;17.69;77.22;100388.38;5119485;27;20138;-68
2022/05/16 04:39:42;;;;;;;11.05;10.35;;;;;;;17.71;77.25;100386.88;5112775;27;20556;-72
2022/05/16 04:44:54;;;;;;;13.27;11.70;;;;;;;17.86;76.65;100416.63;5113010;27;20058;-69
2022/05/16 04:47:21;;;;;;;11.93;11.20;;;;;;;17.76;76.43;100383.91;5107954;28;20557;-69
2022/05/16 04:49:48;;;;;;;17.33;10.75;;;;;;;17.88;76.40;100408.66;5112859;28;20043;-69
2022/05/16 04:52:15;;;;;;;11.57;10.88;;;;;;;17.91;76.42;100398.69;5112047;28;20468;-70
2022/05/16 04:54:42;;;;;;;12.02;11.02;;;;;;;17.92;76.30;100397.53;5112240;27;20127;-68
2022/05/16 04:57:10;;;;;;;11.63;10.93;;;;;;;17.83;75.88;100402.34;5108881;28;20585;-69
2022/05/16 04:59:37;;;;;;;11.93;10.98;;;;;;;17.62;75.73;100383.22;5112290;27;20127;-69
2022/05/16 05:02:04;;;;;;;11.20;10.13;;;;;;;17.88;76.00;100407.81;5109501;28;20138;-68
2022/05/16 05:04:31;;;;;;;10.55;10.02;;;;;;;17.78;75.88;100386.41;5110065;27;20054;-69
2022/05/16 05:06:58;;;;;;;11.65;10.25;;;;;;;17.80;75.93;100369.94;5111845;28;20473;-70
2022/05/16 05:09:24;;;;;;;11.82;10.93;;;;;;;17.85;75.73;100385.91;5112015;27;20078;-70
2022/05/16 05:14:39;;;;;;;11.45;10.20;;;;;;;17.99;75.18;100409.97;5111440;27;20082;-69
2022/05/16 05:17:09;;;;;;;11.20;10.32;;;;;;;17.94;74.91;100415.78;5110796;28;20130;-68
2022/05/16 05:19:39;;;;;;;;;;;;;;;17.85;75.54;100429.09;5111617;27;20078;-68
2022/05/16 05:22:07;;;;;;;;;;;;;;;17.81;75.51;100407.50;5107371;28;20446;-69
2022/05/16 05:24:33;;;;;;;13.10;10.02;;;;;;;17.60;75.53;100391.19;5112015;28;19923;-69
2022/05/16 05:27:00;;;;;;;10.32;9.70;;;;;;;17.75;75.85;100421.75;5111302;28;20128;-69
2022/05/16 05:29:27;;;;;;;9.85;9.20;;;;;;;17.50;75.81;100397.16;5113179;28;20882;-69
2022/05/16 05:31:54;;;;;;;10.10;9.27;;;;;;;17.80;76.19;100429.25;5112168;28;20040;-68
2022/05/16 05:34:21;;;;;;;10.82;9.40;;;;;;;17.84;76.47;100412.47;5112303;28;20048;-68
2022/05/16 05:36:48;;;;;;;10.23;9.43;;;;;;;17.50;76.35;100389.53;5109582;28;20130;-67
2022/05/16 05:39:16;;;;;;;9.77;8.98;;;;;;;17.66;76.58;100420.91;5107044;28;20092;-68
2022/05/16 05:41:43;;;;;;;10.38;9.77;;;;;;;17.43;76.26;100391.16;5110346;28;20044;-65
2022/05/16 05:44:11;;;;;;;9.85;9.10;;;;;;;17.34;76.38;100393.16;5144395;27;20055;-67
2022/05/16 05:46:40;;;;;;;11.40;10.25;;;;;;;17.53;76.26;100424.72;5111693;28;20490;-69
2022/05/16 05:49:09;;;;;;;10.27;9.65;;;;;;;17.49;76.13;100406.78;5100878;28;20126;-70
2022/05/16 05:51:39;;;;;;;10.75;9.70;;;;;;;17.48;76.03;100403.13;5111405;28;20045;-69
2022/05/16 05:54:07;;;;;;;10.40;9.55;;;;;;;17.43;76.31;100411.75;5106815;28;20126;-70
2022/05/16 05:56:34;;;;;;;12.32;8.50;;;;;;;17.53;75.74;100407.78;5107656;28;20116;-67
2022/05/16 05:59:03;;;;;;;9.80;9.20;;;;;;;17.54;76.09;100417.94;5143838;27;20134;-69
2022/05/16 06:01:31;;;;;;;11.35;10.57;;;;;;;17.64;76.16;100431.72;5112008;27;20127;-70
2022/05/16 06:03:59;;;;;;;9.93;9.20;;;;;;;17.61;75.84;100415.44;5113418;27;20048;-69
2022/05/16 06:06:26;;;;;;;10.80;9.75;;;;;;;17.51;75.93;100410.13;5114507;28;20044;-68
2022/05/16 06:08:53;;;;;;;9.77;8.77;;;;;;;17.81;75.64;100435.72;5112994;27;20131;-69
2022/05/16 06:11:21;;;;;;;9.57;8.77;;;;;;;17.84;76.01;100452.03;5116674;27;20039;-68
2022/05/16 06:13:48;;;;;;;9.55;8.73;;;;;;;17.88;75.88;100436.91;5113382;27;20048;-69
2022/05/16 06:16:15;;;;;;;10.40;9.60;;;;;;;17.73;76.18;100451.50;5110307;28;20048;-69
2022/05/16 06:18:42;;;;;;;10.95;9.85;;;;;;;17.72;76.37;100461.97;5113454;27;20428;-69
2022/05/16 06:21:09;;;;;;;9.07;8.57;;;;;;;17.65;75.92;100444.69;5111329;27;20047;-69
2022/05/16 06:23:35;;;;;;;11.50;10.07;;;;;;;17.68;76.20;100465.78;5113551;27;20083;-68
2022/05/16 06:26:02;;;;;;;11.02;8.57;;;;;;;17.39;75.26;100424.03;5111977;28;20565;-64
2022/05/16 06:28:32;;;;;;;11.07;9.82;;;;;;;17.76;75.87;100462.97;5111476;28;20464;-65
2022/05/16 06:30:59;;;;;;;8.57;8.07;;;;;;;17.68;75.53;100477.91;5115817;27;20387;-65
2022/05/16 06:33:26;;;;;;;11.05;10.10;;;;;;;17.72;75.63;100461.97;5113415;28;20506;-64
2022/05/16 06:35:53;;;;;;;10.45;9.55;;;;;;;17.81;75.47;100475.28;5114316;27;20561;-65
2022/05/16 06:38:25;;;;;;;12.73;12.10;;;;;;;17.85;75.38;100477.13;5111539;27;20510;-65
2022/05/16 06:40:52;;;;;;;10.00;9.40;;;;;;;17.83;75.13;100481.44;5109535;27;20044;-64
2022/05/16 06:43:21;;;;;;;12.52;11.60;;;;;;;17.80;75.24;100476.44;5139133;27;20131;-64
2022/05/16 06:45:49;;;;;;;11.23;10.45;;;;;;;17.69;75.72;100473.91;5110815;27;20082;-65
2022/05/16 06:48:17;;;;;;;10.10;9.27;;;;;;;17.67;76.18;100483.88;5112563;28;20131;-65
2022/05/16 06:50:45;;;;;;;12.95;11.93;;;;;;;17.45;76.32;100470.72;5113527;28;20127;-65
2022/05/16 06:53:19;;;;;;;14.27;13.35;;;;;;;17.57;76.69;100479.38;5114760;27;20153;-64
2022/05/16 06:55:46;;;;;;;15.60;14.05;;;;;;;17.53;77.11;100492.50;5111628;28;20130;-65
2022/05/16 06:58:13;;;;;;;13.93;12.82;;;;;;;17.50;77.56;100493.13;5097013;28;20147;-65
2022/05/16 07:00:40;;;;;;;13.75;12.85;;;;;;;17.37;77.77;100471.56;5111270;28;20075;-65
2022/05/16 07:03:07;;;;;;;13.60;12.25;;;;;;;17.68;77.98;100492.03;5109985;27;20105;-65
2022/05/16 07:05:46;;;;;;;17.67;11.80;;;;;;;17.74;77.73;100487.91;5114914;28;20093;-65
2022/05/16 07:08:13;;;;;;;11.43;10.68;;;;;;;17.69;77.17;100440.03;5113550;28;20118;-65
2022/05/16 07:10:40;;;;;;;13.82;12.18;;;;;;;18.01;76.82;100480.28;5111929;28;20040;-65
2022/05/16 07:13:08;;;;;;;12.05;11.10;;;;;;;18.10;76.41;100469.81;5112699;28;20138;-66
2022/05/16 07:15:35;;;;;;;13.40;12.27;;;;;;;18.24;75.66;100495.91;5111433;28;20135;-66
2022/05/16 07:18:02;;;;;;;10.25;9.68;;;;;;;18.24;75.41;100473.28;5107867;28;20564;-66
2022/05/16 07:20:36;;;;;;;10.77;10.00;;;;;;;18.36;74.45;100498.06;5109784;28;20055;-65
2022/05/16 07:23:03;;;;;;;8.90;7.97;;;;;;;18.34;74.22;100493.91;5113873;28;20462;-67
2022/05/16 07:25:32;;;;;;;9.27;8.32;;;;;;;18.48;74.06;100503.03;5113344;28;20143;-64
2022/05/16 07:28:05;;;;;;;9.05;8.32;;;;;;;18.50;73.20;100497.88;5110480;28;20079;-65
2022/05/16 07:30:34;;;;;;;8.98;8.13;;;;;;;18.69;73.17;100503.97;5106235;27;20039;-66
2022/05/16 07:33:02;;;;;;;12.70;11.57;;;;;;;18.94;73.03;100507.94;5102399;28;20173;-65
2022/05/16 07:35:32;;;;;;;10.52;9.82;;;;;;;19.12;71.95;100500.22;5105413;27;20051;-65
2022/05/16 07:38:00;;;;;;;11.02;8.27;;;;;;;19.17;70.81;100490.69;5111342;27;20047;-64
2022/05/16 07:40:30;;;;;;;7.30;6.90;;;;;;;19.39;71.00;100503.75;5109333;27;20505;-64
2022/05/16 07:42:57;;;;;;;9.45;8.68;;;;;;;19.51;70.91;100501.00;5115346;27;20050;-68
2022/05/16 07:45:25;;;;;;;9.55;7.78;;;;;;;19.62;70.49;100505.13;5113537;27;20073;-71
2022/05/16 07:47:53;;;;;;;7.90;7.03;;;;;;;19.68;69.94;100497.25;5108378;27;20055;-70
2022/05/16 07:50:23;;;;;;;11.43;10.65;;;;;;;19.89;69.80;100494.44;5116153;27;20070;-70
2022/05/16 07:52:51;;;;;;;9.70;8.87;;;;;;;20.00;69.13;100509.88;5116098;28;20569;-68
2022/05/16 07:55:23;;;;;;;7.60;7.20;;;;;;;20.01;68.27;100522.03;5113797;28;20715;-69
2022/05/16 07:57:50;;;;;;;6.97;6.47;;;;;;;19.87;68.38;100500.47;5139239;27;20059;-69
2022/05/16 08:00:19;;;;;;;7.68;7.13;;;;;;;20.12;69.03;100511.94;5107759;27;20124;-69
2022/05/16 08:02:47;;;;;;;7.75;7.10;;;;;;;19.91;67.74;100519.63;5112407;27;20047;-69
2022/05/16 08:05:15;;;;;;;9.38;7.18;;;;;;;20.06;68.12;100531.16;5108317;27;20469;-70
2022/05/16 08:10:29;;;;;;;8.25;7.75;;;;;;;19.97;68.20;100529.59;5111134;27;20055;-69
2022/05/16 08:13:06;;;;;;;9.68;8.75;;;;;;;20.02;67.22;100513.19;5110686;27;20509;-69
2022/05/16 08:15:35;;;;;;;8.43;7.82;;;;;;;19.92;67.57;100510.75;5112111;27;20104;-69
2022/05/16 08:18:03;;;;;;;9.43;8.77;;;;;;;19.92;66.67;100524.09;5106731;28;20448;-70
2022/05/16 08:20:29;;;;;;;7.97;7.35;;;;;;;19.85;66.68;100479.31;5110657;27;20506;-69
2022/05/16 08:22:57;;;;;;;8.48;7.97;;;;;;;20.08;67.02;100516.66;5110486;28;20053;-69
2022/05/16 08:25:24;;;;;;;8.75;7.90;;;;;;;20.15;67.06;100516.09;5114858;27;20044;-70
2022/05/16 08:27:51;;;;;;;12.63;9.02;;;;;;;20.14;66.78;100503.94;5112742;28;20043;-69
2022/05/16 08:30:20;;;;;;;9.80;9.30;;;;;;;20.11;66.58;100510.28;5110926;28;20047;-68
2022/05/16 08:32:47;;;;;;;9.88;9.32;;;;;;;19.77;66.90;100517.88;5112878;28;20079;-69
2022/05/16 08:35:14;;;;;;;8.85;8.40;;;;;;;19.52;68.41;100528.16;5113156;28;20470;-69
2022/05/16 08:40:53;;;;;;;10.38;9.40;;;;;;;19.40;68.57;100534.53;5107693;28;20472;-69
2022/05/16 08:43:50;;;;;;;12.13;11.27;;;;;;;18.91;71.22;100522.75;5109666;28;20126;-68
2022/05/16 08:46:44;;;;;;;12.80;11.85;;;;;;;18.88;72.63;100559.38;5110751;28;20048;-69
2022/05/16 08:49:19;;;;;;;13.45;12.50;;;;;;;18.72;73.17;100566.75;5106608;28;20047;-69
2022/05/16 08:51:52;;;;;;;12.75;11.82;;;;;;;18.64;73.26;100548.59;5107767;28;20047;-69
2022/05/16 08:54:19;;;;;;;11.40;10.77;;;;;;;18.80;73.49;100560.22;5107781;28;20074;-68
2022/05/16 08:56:47;;;;;;;11.75;11.15;;;;;;;18.76;73.31;100556.41;5107731;27;20087;-70
2022/05/16 08:59:21;;;;;;;11.30;10.52;;;;;;;18.91;73.60;100545.41;5104885;27;20516;-70
2022/05/16 09:01:54;;;;;;;12.88;11.85;;;;;;;19.16;73.30;100566.28;5104445;27;20425;-69
2022/05/16 09:04:30;;;;;;;10.60;9.70;;;;;;;19.39;72.61;100583.88;5112045;28;20047;-70
2022/05/16 09:07:15;;;;;;;11.02;8.85;;;;;;;19.37;71.82;100562.72;5113400;28;20067;-70
2022/05/16 09:10:05;;;;;;;12.18;11.18;;;;;;;19.41;72.27;100577.84;5110549;27;20047;-70
2022/05/16 09:12:57;;;;;;;15.70;14.68;;;;;;;18.75;74.07;100560.41;5111348;27;20142;-69
2022/05/16 09:15:30;;;;;;;17.92;16.85;;;;;;;18.76;74.86;100587.53;5111297;27;20139;-69
2022/05/16 09:17:57;;;;;;;24.25;22.83;;;;;;;18.48;75.87;100590.69;5105538;27;20075;-69
2022/05/16 09:20:49;;;;;;;18.95;17.88;;;;;;;18.26;76.61;100579.56;5107238;27;20131;-70
2022/05/16 09:23:31;;;;;;;15.95;15.05;;;;;;;18.01;77.37;100576.34;5110423;28;20071;-69
2022/05/16 09:26:18;;;;;;;19.20;17.33;;;;;;;18.12;77.27;100585.34;5100499;28;20082;-69
2022/05/16 09:29:06;;;;;;;16.15;15.15;;;;;;;18.23;77.29;100590.34;5100212;28;20044;-69
2022/05/16 09:31:39;;;;;;;14.07;13.00;;;;;;;18.47;77.42;100583.38;5101780;27;20079;-69
2022/05/16 09:34:07;;;;;;;13.27;12.50;;;;;;;18.77;76.59;100580.69;5109659;28;20047;-70
2022/05/16 09:36:38;;;;;;;11.23;10.73;;;;;;;19.21;75.55;100590.75;5109286;28;20124;-69
2022/05/16 09:39:07;;;;;;;12.40;11.35;;;;;;;19.52;75.09;100601.81;5106213;28;20135;-69
2022/05/16 09:41:54;;;;;;;11.48;10.57;;;;;;;19.82;74.30;100584.84;5109167;28;20466;-68
2022/05/16 09:44:21;;;;;;;11.63;10.95;;;;;;;19.91;73.03;100601.81;5098564;27;20047;-69
2022/05/16 09:46:49;;;;;;;13.68;12.32;;;;;;;20.03;72.30;100571.56;5103227;28;20515;-70
2022/05/16 09:49:22;;;;;;;11.50;10.35;;;;;;;20.21;71.77;100577.94;5106082;28;20138;-71
2022/05/16 09:51:55;;;;;;;11.32;10.40;;;;;;;20.40;70.54;100588.78;5104866;28;20138;-70
2022/05/16 09:54:37;;;;;;;12.75;11.60;;;;;;;20.75;70.01;100579.97;5108373;28;20192;-70
2022/05/16 09:57:05;;;;;;;10.05;9.35;;;;;;;20.95;69.01;100587.63;5103472;28;20601;-70
2022/05/16 09:59:39;;;;;;;10.25;9.43;;;;;;;20.87;67.33;100584.88;5105087;28;20418;-70
2022/05/16 10:02:14;;;;;;;8.82;8.30;;;;;;;20.78;67.07;100579.28;5103185;28;20126;-70
2022/05/16 10:04:56;;;;;;;12.38;11.48;;;;;;;20.86;68.13;100586.91;5104886;28;20108;-70
2022/05/16 10:07:44;;;;;;;9.07;8.48;;;;;;;20.62;66.65;100581.97;5106902;28;20050;-70
2022/05/16 10:10:20;;;;;;;10.10;9.25;;;;;;;20.42;67.35;100568.59;5108670;28;20044;-70
2022/05/16 10:12:50;;;;;;;11.40;10.40;;;;;;;20.59;67.57;100608.19;5104653;28;20501;-70
2022/05/16 10:15:17;;;;;;;9.68;9.18;;;;;;;20.52;67.63;100594.56;5108598;28;20135;-70
2022/05/16 10:17:47;;;;;;;9.48;8.80;;;;;;;20.39;67.57;100578.63;5108382;28;20059;-70
2022/05/16 10:20:20;;;;;;;9.18;8.52;;;;;;;20.28;68.04;100549.03;5106037;28;20075;-70
2022/05/16 10:22:53;;;;;;;8.77;8.27;;;;;;;20.59;67.93;100594.81;5104695;28;20041;-69
2022/05/16 10:25:36;;;;;;;9.18;8.68;;;;;;;20.65;67.60;100608.78;5106475;28;20063;-70
2022/05/16 10:28:08;;;;;;;9.77;8.90;;;;;;;20.43;67.21;100573.91;5105635;28;20078;-70
2022/05/16 10:33:24;;;;;;;9.43;8.55;;;;;;;20.74;67.45;100607.53;5105032;28;20047;-69
2022/05/16 10:33:26;;;;;;;12.52;11.60;;;;;;;20.79;67.65;100587.47;5106926;28;20044;-70
2022/05/16 10:36:05;;;;;;;9.25;8.75;;;;;;;20.74;66.99;100618.06;5109378;28;20101;-70
2022/05/16 10:38:48;;;;;;;10.63;9.93;;;;;;;20.71;67.10;100596.88;5109111;28;20055;-70
2022/05/16 10:41:35;;;;;;;12.32;11.63;;;;;;;20.71;67.35;100611.06;5108290;28;20051;-71
2022/05/16 10:44:13;;;;;;;11.00;10.10;;;;;;;20.70;67.50;100622.78;5106768;28;20566;-70
2022/05/16 10:46:42;;;;;;;10.88;10.07;;;;;;;20.69;67.07;100604.09;5101204;28;20079;-70
2022/05/16 10:49:16;;;;;;;10.00;9.32;;;;;;;20.83;67.58;100638.69;5111782;27;20047;-70
2022/05/16 10:52:12;;;;;;;9.18;8.57;;;;;;;20.76;68.63;100627.88;5115108;27;20130;-70
2022/05/16 10:54:39;;;;;;;18.40;17.13;;;;;;;20.34;69.66;100661.06;5112934;28;20470;-70
2022/05/16 10:57:38;;;;;;;20.27;18.98;;;;;;;19.84;70.70;100670.34;5111067;27;20503;-65
2022/05/16 11:00:18;;;;;;;21.80;20.35;;;;;;;19.54;72.34;100692.94;5058892;28;20563;-65
2022/05/16 11:02:55;;;;;;;19.25;17.98;;;;;;;19.39;72.89;100682.97;5108756;28;20069;-64
2022/05/16 11:05:39;;;;;;;19.00;17.70;;;;;;;19.11;74.20;100676.03;5111813;28;20139;-65
2022/05/16 11:08:22;;;;;;;18.80;17.40;;;;;;;19.00;75.18;100671.88;5104645;27;20086;-66
2022/05/16 11:11:08;;;;;;;19.50;18.20;;;;;;;18.78;75.23;100621.97;5109146;27;20080;-65
2022/05/16 11:14:15;;;;;;;21.40;19.50;;;;;;;19.08;76.43;100671.06;5111659;28;20181;-64
2022/05/16 11:16:42;;;;;;;19.67;18.27;;;;;;;18.93;77.51;100697.84;5104911;27;20051;-65
2022/05/16 11:19:19;;;;;;;20.75;18.90;;;;;;;18.93;77.68;100686.53;5108674;27;20075;-65
2022/05/16 11:22:04;;;;;;;23.35;21.42;;;;;;;18.91;77.36;100694.56;5109896;28;20525;-65
2022/05/16 11:24:49;;;;;;;20.50;19.08;;;;;;;18.77;78.56;100691.03;5108622;28;20097;-65
2022/05/16 11:27:42;;;;;;;26.05;24.60;;;;;;;18.62;79.32;100675.34;5104773;28;20113;-64
2022/05/16 11:30:21;;;;;;;19.38;17.95;;;;;;;18.56;79.45;100677.50;5088184;27;20079;-66
2022/05/16 11:33:02;;;;;;;19.20;17.58;;;;;;;18.53;79.58;100678.19;5109818;28;20039;-66
2022/05/16 11:35:40;;;;;;;19.58;18.27;;;;;;;18.46;79.80;100675.84;5109966;27;20494;-66
2022/05/16 11:38:41;;;;;;;17.80;16.60;;;;;;;18.57;79.90;100696.16;5109680;28;20135;-66
2022/05/16 11:41:45;;;;;;;18.42;17.02;;;;;;;18.71;80.12;100690.34;5109456;28;20490;-65
2022/05/16 11:44:18;;;;;;;16.95;15.73;;;;;;;18.97;79.21;100693.19;5108335;27;20130;-66
2022/05/16 11:46:57;;;;;;;17.10;15.77;;;;;;;19.09;78.65;100673.53;5108007;27;20550;-65
2022/05/16 11:50:02;;;;;;;20.17;18.52;;;;;;;18.98;78.70;100677.06;5108388;28;20058;-66
2022/05/16 11:52:52;;;;;;;14.65;13.63;;;;;;;19.13;78.37;100679.38;5108721;28;20427;-65
2022/05/16 12:01:26;;;;;;;12.57;11.77;;;;;;;19.83;76.69;100654.53;5102114;27;20093;-71
2022/05/16 12:04:13;;;;;;;17.10;11.90;;;;;;;20.31;75.62;100671.09;5109435;28;20131;-71